Kokomo, IN (46901)

3:59 PM EDT on August 24, 2016 (GMT -0400)
| | Change Station
Active Advisory: Tornado Warning, Tornado Watch Active Notice: Local Storm Report

Elev -9999 ft 0.00 °N, 0.00 °E | Updated

Thunderstorm
Thunderstorm
79 °F
Feels Like 79 °F
N
14
Wind Variable Wind from SW
Gusts 20 mph

Today
High -- | Low -- °F
--% Chance of Precip.
Yesterday
High -- | Low -- °F
Precip. -- in
Pressure 30.03 in
Visibility 7.0 miles
Clouds Scattered Clouds 2500 ft
Mostly Cloudy 3000 ft
Overcast 5000 ft
Dew Point 73 °F
Humidity 82%
Rainfall --
Snow Depth Not available.
7:04 AM 8:28 PM
Waning Gibbous, 54% visible
METAR KOKK 241915Z AUTO 22006KT 7SM TS SCT025 BKN030 OVC050 25/21 A3003 RMK AO1 LTG DSNT ALQDS P0022
Pressure 30.03 in
Visibility 7.0 miles
Clouds Scattered Clouds 2500 ft
Mostly Cloudy 3000 ft
Overcast 5000 ft
Dew Point 73 °F
Humidity 82%
Rainfall --
Snow Depth Not available.
7:04 AM 8:28 PM
Waning Gibbous, 54% visible
METAR KOKK 241915Z AUTO 22006KT 7SM TS SCT025 BKN030 OVC050 25/21 A3003 RMK AO1 LTG DSNT ALQDS P0022

10-Day Weather Forecast

Almanac

Astronomy

Aug. 24, 2016 Rise Set
Actual Time
Civil Twilight
Nautical Twilight
Astronomical Twilight
Moon
Length of Visible Light
Length of Day
Tomorrow will be .
, % of the Moon is Illuminated

Today's Extremes

State Highs State Lows

Community

WunderPhotos

Upload Photos

1,934,690 photos uploaded!

WunderBlog® & News

Nearby

Air Quality

  Air Quality AQ Index Pollutant
Not available.

Snow Depth

Station Depth Elevation

Earthquake Activity

City Distance Mag. Time & Date
Minimum magnitude displayed is 2.5.

Coastal Water Temperatures

Place Temperature

Stations

Nearby Weather Stations

Station Location Temp. Windchill Dew Point Humidity Wind Precip. Elev Updated Type
                   

Watches & Warnings

Tornado Warning
Issued: 3:58 PM EDT Aug. 24, 2016 – National Weather Service

... The Tornado Warning for northeastern Howard County will expire at
400 PM EDT...

the storm which prompted the warning has moved out of the area.
Therefore... the warning will be allowed to expire.

A Tornado Watch remains in effect until 900 PM EDT for central
Indiana.

To report severe weather... contact your nearest law enforcement
agency. They will relay your report to the National Weather Service
Indianapolis.

Lat... Lon 4054 8586 4044 8586 4045 8601 4054 8600
      4056 8600 4056 8587
time... Mot... loc 1956z 267deg 24kt 4050 8590


Ryan



Tornado Watch
Issued: 3:43 PM EDT Aug. 24, 2016 – National Weather Service

Tornado Watch 454 remains in effect until 900 PM EDT for the
following locations


In
. Indiana counties included are

Adams Bartholomew Blackford
Boone Brown Clinton
Decatur Delaware Fayette
Franklin Grant Hamilton
Hancock Hendricks Henry
Howard Huntington Jay
Johnson Madison Marion
Monroe Morgan Owen
Putnam Randolph rush
Shelby Tipton Union
Wayne Wells